Watertown, New York
Current Conditions -  °F | °C
As of 6:56 AM on Friday 28 Nov 2014 (Local Time) from KART Reporting Station
Overcast Overcast  
Wind Chill: 18°   Ceiling: 6500
Heat Index: 18°   Visibility: 10mi
Dew Point: 12°   Wind: 0mph
Humidity: 78%   Direction: NA
Pressure: 30.15"   Gusts: NA
Location:  43.98°N, 75.91°W
Report Text: KART 281156Z AUTO 00000KT 10SM BKN065 OVC085 M08/M11 A3015 RMK AO2 SLP218 70002 I1000 I6001 T10781111 11033 21094 51010
Loading
Personal Weather Stations






























Interactive Weather Map New forecast layout! Learn more

10-Day Weather Forecast

Advertisements
Track Severe Weather on mobile